Time;durP1;ratioP1;P1;durP2;ratioP2;P2;SDS_P1;SDS_P2;PMS_P1;PMS_P2;Temp;Humidity;BMP_temperature;BMP_pressure;BME280_temperature;BME280_humidity;BME280_pressure;Samples;Min_cycle;Max_cycle;Signal;HPM_P1;HPM_P2
2022/09/27 00:01:07;;;;;;;9.18;3.67;;;12.80;99.90;;;;;;5030066;28;20030;-68
2022/09/27 00:03:33;;;;;;;5.95;3.15;;;12.80;99.90;;;;;;5031000;28;20087;-68
2022/09/27 00:06:10;;;;;;;9.23;3.25;;;12.80;99.90;;;;;;5030022;28;20474;-68
2022/09/27 00:08:36;;;;;;;9.50;3.42;;;12.80;99.90;;;;;;5026905;28;20500;-67
2022/09/27 00:11:09;;;;;;;8.35;3.25;;;12.80;99.90;;;;;;5032021;28;20017;-68
2022/09/27 00:13:35;;;;;;;7.78;3.30;;;12.70;99.90;;;;;;5031347;28;20407;-68
2022/09/27 00:16:04;;;;;;;9.02;2.70;;;12.80;99.90;;;;;;5031703;28;20037;-68
2022/09/27 00:18:31;;;;;;;5.75;2.33;;;12.80;99.90;;;;;;5031902;28;20095;-68
2022/09/27 00:21:04;;;;;;;7.93;3.45;;;12.70;99.90;;;;;;5029348;28;20135;-68
2022/09/27 00:23:30;;;;;;;7.07;1.75;;;12.60;99.90;;;;;;5029962;28;20044;-67
2022/09/27 00:25:57;;;;;;;8.73;2.22;;;12.60;99.90;;;;;;5032099;28;20471;-67
2022/09/27 00:28:23;;;;;;;8.63;1.83;;;12.60;99.90;;;;;;5025782;28;20104;-67
2022/09/27 00:30:49;;;;;;;3.97;1.80;;;12.60;99.90;;;;;;5029064;28;20036;-68
2022/09/27 00:33:14;;;;;;;7.75;1.63;;;12.60;99.90;;;;;;5029095;28;20006;-67
2022/09/27 00:35:40;;;;;;;4.75;1.52;;;12.50;99.90;;;;;;5030049;28;20083;-67
2022/09/27 00:38:06;;;;;;;5.13;1.80;;;12.50;99.90;;;;;;5031564;28;20447;-67
2022/09/27 00:40:31;;;;;;;3.53;1.77;;;12.60;99.90;;;;;;5031722;28;20666;-67
2022/09/27 00:42:57;;;;;;;4.00;2.10;;;12.60;99.90;;;;;;5027247;28;20041;-67
2022/09/27 00:45:23;;;;;;;6.63;2.00;;;12.70;99.90;;;;;;5031152;28;20017;-68
2022/09/27 00:48:02;;;;;;;4.57;2.13;;;12.60;99.90;;;;;;5031121;28;20022;-67
2022/09/27 00:50:35;;;;;;;5.57;2.28;;;12.60;99.90;;;;;;5030510;28;20117;-67
2022/09/27 00:53:18;;;;;;;;;;;12.60;99.90;;;;;;5028740;28;20493;-67
2022/09/27 00:55:52;;;;;;;7.88;1.63;;;12.70;99.90;;;;;;5030153;28;19985;-67
2022/09/27 00:58:21;;;;;;;4.18;1.10;;;12.60;99.90;;;;;;5032430;28;20036;-68
2022/09/27 01:00:51;;;;;;;6.43;1.58;;;12.60;99.90;;;;;;5034664;28;20059;-68
2022/09/27 01:03:38;;;;;;;4.15;1.30;;;12.60;99.90;;;;;;5034605;28;21516;-68
2022/09/27 01:06:07;;;;;;;9.27;2.20;;;12.60;99.90;;;;;;5034118;28;20044;-67
2022/09/27 01:08:32;;;;;;;5.72;1.60;;;12.70;99.90;;;;;;5034186;28;20390;-67
2022/09/27 01:11:10;;;;;;;6.40;1.70;;;12.70;99.90;;;;;;5033940;28;20033;-68
2022/09/27 01:13:46;;;;;;;7.47;1.92;;;12.60;99.90;;;;;;5035049;28;20104;-68
2022/09/27 01:16:14;;;;;;;5.38;2.05;;;12.70;99.90;;;;;;5033889;28;20045;-68
2022/09/27 01:19:22;;;;;;;7.20;2.08;;;12.80;99.90;;;;;;5034109;28;20028;-68
2022/09/27 01:21:58;;;;;;;8.05;1.92;;;12.80;99.90;;;;;;5034092;28;20527;-68
2022/09/27 01:24:44;;;;;;;6.18;2.15;;;12.80;99.90;;;;;;5033482;28;20083;-68
2022/09/27 01:27:22;;;;;;;6.85;2.50;;;12.80;99.90;;;;;;5032740;28;20115;-68
2022/09/27 01:30:16;;;;;;;4.72;1.50;;;12.80;99.90;;;;;;5032288;28;20087;-68
2022/09/27 01:32:54;;;;;;;7.68;1.88;;;12.70;99.90;;;;;;5032483;28;20496;-68
2022/09/27 01:35:46;;;;;;;6.53;1.35;;;12.80;99.90;;;;;;5032827;28;20025;-68
2022/09/27 01:38:51;;;;;;;4.78;1.30;;;12.80;99.90;;;;;;5029602;28;20124;-68
2022/09/27 01:41:44;;;;;;;5.13;1.35;;;12.80;99.90;;;;;;5033928;28;20478;-68
2022/09/27 01:44:29;;;;;;;7.30;1.95;;;12.80;99.90;;;;;;5032265;28;20084;-68
2022/09/27 01:47:23;;;;;;;5.45;1.40;;;12.70;99.90;;;;;;5033948;28;20048;-68
2022/09/27 01:50:00;;;;;;;5.72;1.40;;;12.70;99.90;;;;;;5031938;28;20077;-68
2022/09/27 01:52:35;;;;;;;5.82;1.20;;;12.70;99.90;;;;;;5033031;28;20025;-68
2022/09/27 01:55:05;;;;;;;4.78;0.98;;;12.70;99.90;;;;;;5031930;28;20045;-68
2022/09/27 01:57:35;;;;;;;5.70;1.20;;;12.60;99.90;;;;;;5032798;28;20017;-68
2022/09/27 02:00:06;;;;;;;5.43;1.40;;;12.60;99.90;;;;;;5030837;28;20017;-67
2022/09/27 02:02:41;;;;;;;7.88;0.82;;;12.50;99.90;;;;;;5034413;28;20021;-67
2022/09/27 02:05:12;;;;;;;2.03;0.68;;;12.40;99.90;;;;;;5033902;28;20025;-68
2022/09/27 02:07:43;;;;;;;2.33;0.50;;;12.30;99.90;;;;;;5031075;28;20743;-67
2022/09/27 02:10:22;;;;;;;3.67;1.00;;;12.30;99.90;;;;;;5032727;28;20547;-67
2022/09/27 02:13:18;;;;;;;3.15;0.57;;;12.40;99.90;;;;;;5029725;28;20048;-67
2022/09/27 02:16:21;;;;;;;4.72;0.95;;;12.40;99.90;;;;;;5030353;28;20401;-67
2022/09/27 02:18:52;;;;;;;;;;;12.40;99.90;;;;;;5032461;28;20021;-67
2022/09/27 02:21:19;;;;;;;2.97;0.68;;;12.40;99.90;;;;;;5031841;28;19913;-67
2022/09/27 02:23:51;;;;;;;2.47;0.70;;;12.50;99.90;;;;;;5032201;28;20017;-67
2022/09/27 02:26:23;;;;;;;4.78;0.70;;;12.40;99.90;;;;;;5031624;28;20462;-67
2022/09/27 02:29:12;;;;;;;6.15;0.80;;;12.40;99.90;;;;;;5032647;28;20053;-67
2022/09/27 02:31:38;;;;;;;1.48;0.60;;;12.20;99.90;;;;;;5031167;28;20473;-67
2022/09/27 02:34:17;;;;;;;4.80;0.70;;;12.20;99.90;;;;;;5032682;28;20025;-67
2022/09/27 02:36:43;;;;;;;3.40;0.60;;;12.10;99.90;;;;;;5031100;28;20106;-68
2022/09/27 02:39:09;;;;;;;4.30;0.60;;;12.10;99.90;;;;;;5031922;28;20029;-68
2022/09/27 02:41:35;;;;;;;2.60;0.90;;;12.10;99.90;;;;;;5033706;28;20149;-68
2022/09/27 02:44:06;;;;;;;5.85;1.17;;;12.10;99.90;;;;;;5032587;28;20131;-68
2022/09/27 02:46:31;;;;;;;3.53;0.70;;;12.10;99.90;;;;;;5033185;28;20378;-69
2022/09/27 02:49:15;;;;;;;5.22;1.05;;;12.10;99.90;;;;;;5029931;28;20031;-68
2022/09/27 02:51:53;;;;;;;3.67;0.55;;;12.10;99.90;;;;;;5030662;28;20096;-68
2022/09/27 02:54:47;;;;;;;6.00;1.33;;;12.10;99.90;;;;;;5030369;28;20493;-69
2022/09/27 02:57:21;;;;;;;5.43;1.00;;;12.10;99.90;;;;;;5032242;28;20082;-68
2022/09/27 02:59:56;;;;;;;4.13;0.80;;;12.00;99.90;;;;;;5033766;28;20469;-67
2022/09/27 03:02:39;;;;;;;3.22;0.77;;;12.00;99.90;;;;;;5030696;28;20061;-67
2022/09/27 03:05:09;;;;;;;4.80;0.63;;;11.90;99.90;;;;;;5030396;28;20436;-67
2022/09/27 03:07:37;;;;;;;3.22;0.60;;;11.80;99.90;;;;;;5032255;28;20075;-67
2022/09/27 03:10:04;;;;;;;6.47;1.02;;;11.80;99.90;;;;;;5033252;28;20021;-67
2022/09/27 03:12:30;;;;;;;3.33;0.82;;;11.80;99.90;;;;;;5032696;28;20033;-67
2022/09/27 03:14:57;;;;;;;15.48;1.52;;;11.80;99.90;;;;;;5031643;28;20041;-68
2022/09/27 03:17:23;;;;;;;6.68;1.20;;;11.80;99.90;;;;;;5032984;28;20020;-68
2022/09/27 03:19:49;;;;;;;5.00;0.85;;;11.90;99.90;;;;;;5031596;28;20029;-68
2022/09/27 03:22:15;;;;;;;5.53;0.68;;;11.90;99.90;;;;;;5032785;28;20010;-68
2022/09/27 03:24:41;;;;;;;2.72;1.02;;;12.00;99.90;;;;;;5032314;28;20497;-68
2022/09/27 03:27:07;;;;;;;5.30;0.90;;;12.00;99.90;;;;;;5033219;28;20121;-68
2022/09/27 03:29:33;;;;;;;4.13;0.70;;;12.00;99.90;;;;;;5031959;28;20024;-68
2022/09/27 03:31:59;;;;;;;7.63;1.00;;;12.00;99.90;;;;;;5031791;28;20029;-68
2022/09/27 03:34:24;;;;;;;3.30;0.80;;;12.10;99.90;;;;;;5033066;28;20480;-68
2022/09/27 03:36:50;;;;;;;3.92;0.77;;;12.10;99.90;;;;;;5032772;28;20047;-68
2022/09/27 03:39:16;;;;;;;6.03;0.77;;;12.10;99.90;;;;;;5032879;28;20025;-68
2022/09/27 03:41:41;;;;;;;2.55;0.60;;;12.10;99.90;;;;;;5033300;28;20108;-68
2022/09/27 03:44:07;;;;;;;4.57;1.00;;;12.10;99.90;;;;;;5032320;28;20441;-68
2022/09/27 03:46:33;;;;;;;3.30;1.08;;;12.10;99.90;;;;;;5032839;28;20112;-68
2022/09/27 03:48:59;;;;;;;6.65;1.75;;;12.10;99.90;;;;;;5032616;28;20021;-68
2022/09/27 03:51:25;;;;;;;5.32;0.80;;;12.00;99.90;;;;;;5032660;28;20041;-68
2022/09/27 03:53:50;;;;;;;4.90;0.77;;;12.10;99.90;;;;;;5031429;28;20025;-68
2022/09/27 03:56:16;;;;;;;8.65;1.25;;;12.10;99.90;;;;;;5032353;28;20037;-68
2022/09/27 03:58:42;;;;;;;5.35;1.10;;;12.10;99.90;;;;;;5031895;28;20448;-67
2022/09/27 04:01:08;;;;;;;4.10;0.70;;;12.10;99.90;;;;;;5032789;28;20323;-68
2022/09/27 04:03:35;;;;;;;6.07;1.10;;;12.10;99.90;;;;;;5032489;28;20026;-68
2022/09/27 04:06:01;;;;;;;3.92;1.20;;;12.00;99.90;;;;;;5031841;28;20025;-68
2022/09/27 04:08:27;;;;;;;2.92;0.85;;;12.10;99.90;;;;;;5032427;28;20028;-67
2022/09/27 04:10:52;;;;;;;6.07;0.90;;;12.10;99.90;;;;;;5032954;28;20030;-67
2022/09/27 04:13:18;;;;;;;3.35;0.98;;;12.10;99.90;;;;;;5032441;28;20371;-67
2022/09/27 04:15:44;;;;;;;9.38;1.30;;;12.10;99.90;;;;;;5032435;28;20402;-67
2022/09/27 04:18:09;;;;;;;2.03;0.70;;;12.10;99.90;;;;;;5029840;28;20079;-67
2022/09/27 04:20:35;;;;;;;6.95;1.00;;;12.00;99.90;;;;;;5031414;28;20465;-67
2022/09/27 04:23:02;;;;;;;2.45;0.85;;;12.10;99.90;;;;;;5031151;28;20101;-67
2022/09/27 04:25:28;;;;;;;4.60;1.00;;;12.10;99.90;;;;;;5033127;28;20025;-67
2022/09/27 04:27:54;;;;;;;4.22;1.00;;;12.00;99.90;;;;;;5032676;28;20389;-67
2022/09/27 04:30:21;;;;;;;4.63;1.23;;;12.00;99.90;;;;;;5031915;28;20022;-67
2022/09/27 04:32:47;;;;;;;2.20;0.60;;;12.00;99.90;;;;;;5036539;28;20413;-68
2022/09/27 04:37:58;;;;;;;5.90;1.05;;;11.90;99.90;;;;;;5036962;28;20072;-67
2022/09/27 04:40:24;;;;;;;5.40;0.70;;;11.90;99.90;;;;;;5036764;28;20026;-67
2022/09/27 04:42:50;;;;;;;7.70;0.90;;;11.80;99.90;;;;;;5036737;28;20029;-67
2022/09/27 04:45:17;;;;;;;3.92;0.63;;;11.80;99.90;;;;;;5033126;28;20036;-67
2022/09/27 04:47:48;;;;;;;3.75;0.75;;;11.80;99.90;;;;;;5035100;28;20030;-67
2022/09/27 04:50:14;;;;;;;5.32;0.65;;;11.80;99.90;;;;;;5034829;28;20507;-68
2022/09/27 04:52:40;;;;;;;6.20;1.00;;;11.80;99.90;;;;;;5036239;28;20026;-68
2022/09/27 04:55:10;;;;;;;2.35;1.00;;;11.80;99.90;;;;;;5035828;28;20052;-68
2022/09/27 04:57:35;;;;;;;5.47;0.75;;;11.80;99.90;;;;;;5036467;28;20053;-67
2022/09/27 05:00:03;;;;;;;3.40;1.00;;;11.80;99.90;;;;;;5035950;28;20088;-67
2022/09/27 05:02:28;;;;;;;5.25;0.80;;;11.90;99.90;;;;;;5035765;28;20032;-67
2022/09/27 05:04:58;;;;;;;4.88;0.80;;;11.90;99.90;;;;;;5034476;28;20029;-68
2022/09/27 05:07:27;;;;;;;6.20;1.15;;;12.00;99.90;;;;;;5035465;28;20116;-67
2022/09/27 05:09:53;;;;;;;6.90;1.00;;;11.90;99.90;;;;;;5019702;28;20316;-67
2022/09/27 05:12:20;;;;;;;3.92;1.00;;;12.00;99.90;;;;;;5015051;28;20033;-67
2022/09/27 05:14:46;;;;;;;3.00;1.08;;;12.00;99.90;;;;;;5014220;28;20026;-67
2022/09/27 05:17:11;;;;;;;2.67;0.93;;;12.00;99.90;;;;;;5015992;28;20371;-67
2022/09/27 05:19:38;;;;;;;2.03;0.52;;;11.80;99.90;;;;;;5015967;28;20382;-68
2022/09/27 05:22:05;;;;;;;5.22;0.57;;;11.80;99.90;;;;;;5015471;28;20088;-67
2022/09/27 05:24:32;;;;;;;2.97;0.47;;;11.80;99.90;;;;;;5016113;28;20022;-67
2022/09/27 05:27:00;;;;;;;2.28;0.43;;;11.70;99.90;;;;;;5018333;28;20059;-67
2022/09/27 05:29:26;;;;;;;5.50;0.60;;;11.60;99.90;;;;;;5034712;28;20433;-67
2022/09/27 05:31:52;;;;;;;6.32;0.88;;;11.60;99.90;;;;;;5033488;28;20522;-67
2022/09/27 05:34:19;;;;;;;2.72;0.75;;;11.50;99.90;;;;;;5035046;28;20053;-67
2022/09/27 05:36:48;;;;;;;3.50;0.75;;;11.60;99.90;;;;;;5034711;28;20041;-67
2022/09/27 05:39:18;;;;;;;5.78;1.50;;;11.60;99.90;;;;;;5035381;28;20068;-67
2022/09/27 05:41:44;;;;;;;2.85;0.90;;;11.60;99.90;;;;;;5035257;28;20152;-67
2022/09/27 05:44:12;;;;;;;2.58;1.60;;;11.60;99.90;;;;;;5033597;28;20528;-67
2022/09/27 05:46:38;;;;;;;2.85;1.10;;;11.70;99.90;;;;;;5035167;28;20017;-67
2022/09/27 05:49:04;;;;;;;3.03;1.33;;;11.70;99.90;;;;;;5035351;28;20423;-67
2022/09/27 05:51:30;;;;;;;4.88;1.38;;;11.70;99.90;;;;;;5034691;28;20018;-67
2022/09/27 05:53:55;;;;;;;2.13;1.27;;;11.70;99.90;;;;;;5034707;28;20423;-67
2022/09/27 05:56:21;;;;;;;2.72;1.20;;;11.70;99.90;;;;;;5035131;28;20040;-67
2022/09/27 05:58:47;;;;;;;4.13;1.40;;;11.80;99.90;;;;;;5035136;28;20018;-67
2022/09/27 06:01:12;;;;;;;2.63;0.90;;;11.80;99.90;;;;;;5034046;28;20040;-68
2022/09/27 06:03:39;;;;;;;5.05;1.25;;;11.80;99.90;;;;;;5034188;28;20456;-68
2022/09/27 06:06:06;;;;;;;2.97;1.23;;;11.80;99.90;;;;;;5034004;28;20017;-68
2022/09/27 06:08:33;;;;;;;3.08;1.05;;;11.80;99.90;;;;;;5034292;28;20025;-71
2022/09/27 06:11:08;;;;;;;2.38;1.40;;;11.80;99.90;;;;;;5034111;28;20026;-68
2022/09/27 06:13:35;;;;;;;3.00;1.05;;;11.80;99.90;;;;;;5033693;28;20116;-68
2022/09/27 06:16:02;;;;;;;1.73;1.20;;;11.80;99.90;;;;;;5029994;28;20033;-68
2022/09/27 06:18:27;;;;;;;4.07;1.05;;;11.80;99.90;;;;;;5032629;28;20489;-68
2022/09/27 06:20:54;;;;;;;2.00;1.23;;;11.80;99.90;;;;;;5034464;28;20025;-68
2022/09/27 06:23:22;;;;;;;2.83;1.30;;;11.80;99.90;;;;;;5032811;28;20536;-68
2022/09/27 06:25:48;;;;;;;4.15;1.52;;;11.70;99.90;;;;;;5033996;28;20017;-67
2022/09/27 06:28:15;;;;;;;5.22;1.63;;;11.80;99.90;;;;;;5034623;28;20025;-67
2022/09/27 06:30:44;;;;;;;5.60;1.70;;;11.80;99.90;;;;;;5034063;28;20478;-68
2022/09/27 06:33:13;;;;;;;2.80;1.63;;;11.80;99.90;;;;;;5033240;28;20156;-70
2022/09/27 06:35:41;;;;;;;6.90;1.75;;;11.80;99.90;;;;;;5020121;28;20073;-68
2022/09/27 06:38:09;;;;;;;3.67;1.67;;;11.80;99.90;;;;;;5028465;28;20084;-67
2022/09/27 06:40:35;;;;;;;6.97;1.90;;;11.90;99.90;;;;;;5033749;28;20120;-68
2022/09/27 06:43:07;;;;;;;3.60;1.80;;;11.90;99.90;;;;;;5033973;28;20031;-67
2022/09/27 06:45:34;;;;;;;4.53;2.22;;;11.90;99.90;;;;;;5033478;28;20041;-67
2022/09/27 06:48:04;;;;;;;5.45;2.25;;;11.90;99.90;;;;;;5031593;28;20025;-67
2022/09/27 06:50:35;;;;;;;4.07;1.63;;;11.90;99.90;;;;;;5023112;28;20055;-67
2022/09/27 06:53:01;;;;;;;5.50;1.83;;;12.00;99.90;;;;;;5013967;28;20022;-67
2022/09/27 06:55:27;;;;;;;8.27;2.10;;;11.90;99.90;;;;;;5018994;28;20116;-67
2022/09/27 07:00:38;;;;;;;4.10;1.85;;;12.00;99.90;;;;;;5031401;28;20048;-67
2022/09/27 07:03:04;;;;;;;4.75;1.77;;;12.00;99.90;;;;;;5033064;28;20472;-67
2022/09/27 07:05:30;;;;;;;2.90;1.90;;;12.00;99.90;;;;;;5032667;28;20366;-67
2022/09/27 07:07:57;;;;;;;3.50;1.88;;;11.90;99.90;;;;;;5033228;28;20025;-67
2022/09/27 07:10:28;;;;;;;3.40;1.95;;;12.00;99.90;;;;;;5032566;28;20030;-67
2022/09/27 07:12:55;;;;;;;3.53;2.40;;;11.90;99.90;;;;;;5024548;28;20034;-67
2022/09/27 07:15:21;;;;;;;3.30;2.55;;;12.00;99.90;;;;;;5023988;28;20465;-67
2022/09/27 07:17:57;;;;;;;4.40;2.15;;;12.00;99.90;;;;;;5030839;28;20024;-67
2022/09/27 07:20:23;;;;;;;5.22;2.78;;;12.10;99.90;;;;;;5031716;28;20029;-68
2022/09/27 07:22:49;;;;;;;5.65;2.97;;;12.00;99.90;;;;;;5027174;28;20021;-67
2022/09/27 07:25:15;;;;;;;8.05;3.60;;;12.10;99.90;;;;;;5032496;28;20488;-68
2022/09/27 07:27:40;;;;;;;5.55;3.55;;;12.10;99.90;;;;;;5032356;28;20546;-67
2022/09/27 07:30:07;;;;;;;5.40;3.30;;;12.20;99.90;;;;;;5030999;28;20100;-68
2022/09/27 07:32:35;;;;;;;5.38;3.67;;;12.20;99.90;;;;;;5025386;28;20492;-67
2022/09/27 07:35:02;;;;;;;7.25;4.13;;;12.30;99.90;;;;;;5023934;28;20041;-66
2022/09/27 07:37:31;;;;;;;8.27;4.20;;;12.30;99.90;;;;;;5030747;28;20039;-66
2022/09/27 07:39:58;;;;;;;10.55;4.43;;;12.30;99.90;;;;;;5031981;28;20105;-67
2022/09/27 07:42:23;;;;;;;7.57;3.90;;;12.30;99.90;;;;;;5032525;28;20033;-67
2022/09/27 07:44:49;;;;;;;6.68;3.72;;;12.30;99.90;;;;;;5032245;28;20099;-66
2022/09/27 07:47:15;;;;;;;6.78;4.05;;;12.40;99.90;;;;;;5030159;28;20060;-67
2022/09/27 07:49:41;;;;;;;8.45;4.10;;;12.30;99.90;;;;;;5032121;28;20033;-67
2022/09/27 07:52:07;;;;;;;6.28;4.10;;;12.40;99.90;;;;;;5032649;28;20079;-67
2022/09/27 07:54:32;;;;;;;8.73;5.15;;;12.40;99.90;;;;;;5031334;28;20025;-67
2022/09/27 07:56:58;;;;;;;9.70;5.28;;;12.40;99.90;;;;;;5032240;28;20393;-67
2022/09/27 07:59:23;;;;;;;7.95;5.18;;;12.40;99.90;;;;;;5032402;28;20474;-68
2022/09/27 08:01:49;;;;;;;6.03;4.38;;;12.50;99.90;;;;;;5029584;28;20040;-67
2022/09/27 08:04:15;;;;;;;8.45;4.25;;;12.50;99.90;;;;;;5030670;28;20024;-68
2022/09/27 08:06:41;;;;;;;7.13;4.55;;;12.40;99.90;;;;;;5029409;28;20032;-69
2022/09/27 08:09:08;;;;;;;8.07;4.10;;;12.40;99.90;;;;;;5029719;28;20025;-68
2022/09/27 08:11:36;;;;;;;7.47;4.20;;;12.40;99.90;;;;;;5032131;28;20025;-68
2022/09/27 08:14:03;;;;;;;6.80;4.10;;;12.40;99.90;;;;;;5031756;28;20124;-68
2022/09/27 08:16:29;;;;;;;8.40;4.10;;;12.40;99.90;;;;;;5032171;28;20040;-68
2022/09/27 08:18:54;;;;;;;10.02;4.40;;;12.40;99.90;;;;;;5032223;28;20026;-69
2022/09/27 08:21:20;;;;;;;8.45;4.40;;;12.50;99.90;;;;;;5031936;28;20398;-67
2022/09/27 08:23:46;;;;;;;6.93;4.43;;;12.40;99.90;;;;;;5030329;28;20017;-68
2022/09/27 08:26:11;;;;;;;5.85;4.47;;;12.50;99.90;;;;;;5028030;28;20029;-68
2022/09/27 08:28:37;;;;;;;7.28;4.68;;;12.50;99.90;;;;;;5030200;28;20490;-69
2022/09/27 08:31:03;;;;;;;12.35;5.05;;;12.50;99.90;;;;;;5029747;28;20030;-68
2022/09/27 08:33:28;;;;;;;8.35;4.80;;;12.60;99.90;;;;;;5029967;28;20124;-69
2022/09/27 08:35:54;;;;;;;10.05;6.63;;;12.60;99.90;;;;;;5029467;28;20041;-69
2022/09/27 08:38:21;;;;;;;8.48;5.82;;;12.60;99.90;;;;;;5029859;28;20105;-69
2022/09/27 08:40:58;;;;;;;11.00;6.55;;;12.50;99.90;;;;;;5027990;28;20037;-68
2022/09/27 08:43:37;;;;;;;8.25;6.22;;;12.60;99.90;;;;;;5027077;28;20143;-68
2022/09/27 08:46:08;;;;;;;7.78;6.10;;;12.60;99.90;;;;;;5024625;28;20030;-68
2022/09/27 08:48:37;;;;;;;12.95;6.25;;;12.60;99.90;;;;;;5031577;28;20041;-67
2022/09/27 08:51:05;;;;;;;11.73;7.22;;;12.60;99.90;;;;;;5031367;28;20037;-67
2022/09/27 08:53:38;;;;;;;10.52;6.80;;;12.60;99.90;;;;;;5029590;28;20021;-67
2022/09/27 08:56:07;;;;;;;11.63;7.20;;;12.70;99.90;;;;;;5020855;28;20050;-67
2022/09/27 08:58:42;;;;;;;9.65;7.60;;;12.60;99.90;;;;;;5019766;28;20029;-67
2022/09/27 09:01:14;;;;;;;10.32;8.25;;;12.70;99.90;;;;;;5011905;28;20026;-67
2022/09/27 09:03:47;;;;;;;15.82;7.93;;;12.70;99.90;;;;;;5022036;28;20013;-67
2022/09/27 09:06:27;;;;;;;13.82;8.38;;;12.70;99.90;;;;;;5029371;28;20482;-67
2022/09/27 09:09:17;;;;;;;15.35;7.90;;;12.70;99.90;;;;;;5028529;28;20032;-67
2022/09/27 09:14:41;;;;;;;10.32;7.82;;;12.70;99.90;;;;;;5012152;28;20402;-67
2022/09/27 09:17:44;;;;;;;13.30;8.88;;;12.80;99.90;;;;;;5026621;28;20100;-68
2022/09/27 09:20:39;;;;;;;11.60;8.68;;;12.70;99.90;;;;;;5034838;28;20029;-67
2022/09/27 09:23:26;;;;;;;15.00;10.02;;;12.70;99.90;;;;;;5029722;28;20037;-67
2022/09/27 09:26:06;;;;;;;15.52;9.43;;;12.80;99.90;;;;;;5015279;28;20056;-67
2022/09/27 09:28:38;;;;;;;11.85;9.40;;;12.70;99.90;;;;;;5024139;28;20458;-67
2022/09/27 09:31:11;;;;;;;13.52;10.18;;;12.70;99.90;;;;;;5026823;28;20091;-67
2022/09/27 09:34:02;;;;;;;13.68;9.57;;;12.80;99.90;;;;;;5032334;28;20017;-68
2022/09/27 09:36:41;;;;;;;15.07;9.93;;;12.90;99.90;;;;;;5034799;28;20497;-69
2022/09/27 09:39:15;;;;;;;14.07;8.75;;;12.80;99.90;;;;;;5034561;28;20040;-68
2022/09/27 09:42:24;;;;;;;11.90;9.20;;;12.90;99.90;;;;;;5034526;28;20496;-69
2022/09/27 09:45:05;;;;;;;13.00;7.70;;;13.00;99.90;;;;;;5034623;28;20060;-69
2022/09/27 09:47:39;;;;;;;10.73;7.25;;;13.10;99.90;;;;;;5034708;28;20029;-68
2022/09/27 09:50:18;;;;;;;11.35;8.13;;;13.10;99.90;;;;;;5027975;28;20111;-69
2022/09/27 09:53:03;;;;;;;10.82;6.90;;;13.00;99.90;;;;;;5030563;28;20025;-69
2022/09/27 09:55:34;;;;;;;13.90;7.38;;;13.00;99.90;;;;;;5029162;28;20064;-69
2022/09/27 09:58:20;;;;;;;10.27;7.65;;;13.00;99.90;;;;;;5030180;28;20028;-69
2022/09/27 10:00:49;;;;;;;8.63;7.75;;;13.10;99.90;;;;;;5033393;28;20116;-68
2022/09/27 10:03:15;;;;;;;8.88;7.97;;;13.10;99.90;;;;;;5031639;28;20032;-68
2022/09/27 10:05:44;;;;;;;8.40;7.55;;;13.10;99.90;;;;;;5033492;28;20022;-67
2022/09/27 10:08:18;;;;;;;8.85;8.02;;;13.20;99.90;;;;;;5029798;28;20030;-70
2022/09/27 10:10:43;;;;;;;10.32;6.93;;;13.10;99.90;;;;;;5034154;28;20017;-69
2022/09/27 10:13:18;;;;;;;9.77;7.18;;;13.00;99.90;;;;;;5033873;28;20036;-69
2022/09/27 10:16:01;;;;;;;10.93;7.68;;;12.90;99.90;;;;;;5033055;28;20044;-70
2022/09/27 10:18:28;;;;;;;8.68;6.90;;;12.90;99.90;;;;;;5034201;28;20459;-70
2022/09/27 10:21:00;;;;;;;8.23;7.28;;;12.90;99.90;;;;;;5033963;28;20108;-69
2022/09/27 10:23:27;;;;;;;8.88;6.38;;;13.00;99.90;;;;;;5033845;28;20029;-69
2022/09/27 10:25:56;;;;;;;9.20;6.50;;;13.00;99.90;;;;;;5033383;28;20430;-69
2022/09/27 10:28:36;;;;;;;7.45;6.10;;;13.00;99.90;;;;;;5031883;28;20037;-69
2022/09/27 10:31:07;;;;;;;7.35;5.97;;;12.90;99.90;;;;;;5030405;28;20049;-69
2022/09/27 10:33:36;;;;;;;8.20;5.63;;;13.00;99.90;;;;;;5007850;28;20076;-68
2022/09/27 10:36:02;;;;;;;6.03;4.55;;;13.10;99.90;;;;;;5021934;28;20038;-67
2022/09/27 10:38:32;;;;;;;8.10;5.15;;;13.20;99.90;;;;;;5046852;28;20033;-67
2022/09/27 10:41:20;;;;;;;5.32;4.20;;;13.30;99.90;;;;;;5031220;28;20538;-68
2022/09/27 10:43:46;;;;;;;4.00;3.60;;;13.30;99.90;;;;;;5042440;28;20196;-68
2022/09/27 10:46:20;;;;;;;2.90;2.70;;;13.20;99.90;;;;;;5030040;28;20096;-69
2022/09/27 10:48:45;;;;;;;3.97;3.40;;;13.20;99.90;;;;;;5022657;28;20484;-67
2022/09/27 10:51:28;;;;;;;6.97;4.28;;;13.10;99.90;;;;;;5022397;28;20033;-69
2022/09/27 10:53:59;;;;;;;;;;;13.20;99.90;;;;;;5027913;28;20033;-68
2022/09/27 10:56:33;;;;;;;6.30;3.22;;;13.20;99.90;;;;;;5033667;28;19960;-68
2022/09/27 10:59:01;;;;;;;4.85;3.25;;;13.20;99.90;;;;;;5023047;28;20030;-68
2022/09/27 11:01:44;;;;;;;4.45;3.38;;;13.20;99.90;;;;;;5029491;28;20425;-67
2022/09/27 11:04:20;;;;;;;3.72;3.38;;;13.10;99.90;;;;;;5030770;28;20122;-69
2022/09/27 11:06:45;;;;;;;4.72;2.63;;;13.00;99.90;;;;;;5030285;28;20374;-69
2022/09/27 11:09:23;;;;;;;3.05;1.98;;;12.90;99.90;;;;;;5028750;28;20025;-68
2022/09/27 11:11:49;;;;;;;1.95;1.83;;;12.90;99.90;;;;;;5026502;28;20025;-68
2022/09/27 11:14:20;;;;;;;4.75;1.80;;;12.80;99.90;;;;;;5027826;28;20040;-69
2022/09/27 11:16:52;;;;;;;3.28;1.60;;;12.70;99.90;;;;;;5030494;28;20084;-67
2022/09/27 11:19:46;;;;;;;3.13;1.95;;;12.70;99.90;;;;;;5021057;28;20192;-68
2022/09/27 11:22:40;;;;;;;2.55;1.95;;;12.80;99.90;;;;;;5025565;28;20044;-68
2022/09/27 11:25:29;;;;;;;4.13;2.05;;;12.80;99.90;;;;;;5016836;28;20030;-67
2022/09/27 11:28:10;;;;;;;3.55;1.60;;;12.80;99.90;;;;;;5032209;28;20036;-68
2022/09/27 11:31:02;;;;;;;3.95;1.80;;;12.90;99.90;;;;;;5022583;28;20495;-68
2022/09/27 11:34:05;;;;;;;2.25;1.90;;;12.90;99.90;;;;;;5030445;28;20049;-68
2022/09/27 11:36:38;;;;;;;;;;;12.90;99.90;;;;;;5025871;28;20424;-69
2022/09/27 11:39:31;;;;;;;4.20;1.67;;;13.10;99.90;;;;;;5028112;28;19909;-70
2022/09/27 11:42:13;;;;;;;3.60;1.80;;;13.30;99.90;;;;;;5024183;28;20055;-69
2022/09/27 11:44:50;;;;;;;2.83;1.67;;;13.30;99.90;;;;;;5023058;28;20028;-69
2022/09/27 11:47:32;;;;;;;3.22;2.42;;;13.30;99.90;;;;;;5027591;28;20052;-71
2022/09/27 11:50:42;;;;;;;2.70;1.83;;;13.30;99.90;;;;;;5034281;28;20064;-68
2022/09/27 11:53:46;;;;;;;2.38;1.92;;;13.30;99.90;;;;;;5027809;28;20047;-69
2022/09/27 11:56:26;;;;;;;3.60;2.08;;;13.30;99.90;;;;;;5018873;28;20050;-69
2022/09/27 11:59:19;;;;;;;2.60;2.40;;;13.40;99.90;;;;;;5029134;28;20513;-69
2022/09/27 12:01:57;;;;;;;5.30;3.95;;;13.50;99.90;;;;;;5026467;28;20027;-68
2022/09/27 12:04:43;;;;;;;5.07;3.17;;;13.50;99.90;;;;;;5021198;28;20025;-68
2022/09/27 12:07:18;;;;;;;5.35;2.33;;;13.50;99.90;;;;;;5018717;28;20554;-68
2022/09/27 12:09:48;;;;;;;4.15;2.20;;;13.60;99.90;;;;;;5028710;28;20029;-69
2022/09/27 12:12:21;;;;;;;3.65;2.13;;;13.60;99.90;;;;;;5025286;28;20603;-68
2022/09/27 12:14:55;;;;;;;3.60;1.90;;;13.60;99.90;;;;;;5025064;28;20026;-69
2022/09/27 12:17:30;;;;;;;4.72;1.98;;;13.70;99.90;;;;;;5034840;28;20067;-68
2022/09/27 12:20:00;;;;;;;3.55;2.67;;;13.70;99.90;;;;;;5032521;28;20075;-69
2022/09/27 12:22:34;;;;;;;3.38;2.50;;;13.70;99.90;;;;;;5039557;28;20067;-69
2022/09/27 12:25:02;;;;;;;4.68;2.25;;;13.80;99.90;;;;;;5036756;28;20029;-69
2022/09/27 12:27:53;;;;;;;4.32;2.17;;;13.80;99.90;;;;;;5026610;28;20504;-69
2022/09/27 12:30:19;;;;;;;5.30;2.33;;;13.80;99.90;;;;;;5047720;28;20029;-69
2022/09/27 12:33:06;;;;;;;6.32;2.13;;;13.80;99.90;;;;;;5035820;28;20029;-69
2022/09/27 12:35:56;;;;;;;2.30;2.05;;;13.90;99.90;;;;;;5030069;28;20033;-69
2022/09/27 12:38:32;;;;;;;6.07;2.72;;;13.80;99.90;;;;;;5018600;28;20124;-68
2022/09/27 12:41:00;;;;;;;6.10;2.80;;;13.90;99.90;;;;;;5042015;28;20025;-69
2022/09/27 12:43:30;;;;;;;5.70;2.70;;;14.00;99.90;;;;;;5036296;28;20021;-69
2022/09/27 12:46:05;;;;;;;5.50;2.90;;;14.10;99.90;;;;;;5034243;28;20065;-69
2022/09/27 12:49:08;;;;;;;9.30;3.20;;;14.20;99.90;;;;;;5044398;28;20024;-69
2022/09/27 12:51:39;;;;;;;6.32;2.97;;;14.10;99.90;;;;;;5036314;28;20416;-69
2022/09/27 12:54:11;;;;;;;8.18;4.25;;;14.00;99.90;;;;;;5050410;28;20382;-70
2022/09/27 12:56:48;;;;;;;3.57;3.00;;;14.00;99.90;;;;;;5040790;28;20044;-69
2022/09/27 12:59:20;;;;;;;6.00;2.47;;;14.20;99.90;;;;;;5043742;28;20040;-69
2022/09/27 13:02:10;;;;;;;5.25;2.50;;;14.20;99.90;;;;;;5049825;28;20099;-69
2022/09/27 13:05:14;;;;;;;5.22;2.30;;;14.20;99.90;;;;;;5033335;28;20029;-69
2022/09/27 13:08:16;;;;;;;6.75;2.50;;;14.10;99.90;;;;;;5048306;28;20056;-69
2022/09/27 13:11:03;;;;;;;3.45;2.55;;;13.90;99.90;;;;;;5028075;28;20028;-68
2022/09/27 13:13:30;;;;;;;4.55;2.42;;;14.00;99.90;;;;;;5033230;28;20712;-69
2022/09/27 13:16:00;;;;;;;6.35;2.35;;;14.10;99.90;;;;;;5050461;28;20052;-69
2022/09/27 13:18:34;;;;;;;4.95;2.85;;;14.10;99.90;;;;;;5029805;28;20028;-69
2022/09/27 13:21:02;;;;;;;5.72;2.88;;;14.10;99.90;;;;;;5042678;28;20370;-69